createdAt,value
2023-05-10T00:01:45.234Z,10.76
2023-05-10T00:04:13.143Z,10.69
2023-05-10T00:06:41.281Z,10.72
2023-05-10T00:09:09.068Z,10.63
2023-05-10T00:11:36.444Z,10.50
2023-05-10T00:14:04.375Z,10.57
2023-05-10T00:16:31.837Z,10.57
2023-05-10T00:19:02.296Z,10.44
2023-05-10T00:21:29.707Z,10.48
2023-05-10T00:23:57.633Z,10.60
2023-05-10T00:26:25.067Z,10.44
2023-05-10T00:28:52.798Z,10.47
2023-05-10T00:31:20.225Z,10.46
2023-05-10T00:33:47.862Z,10.35
2023-05-10T00:36:15.117Z,10.37
2023-05-10T00:38:42.778Z,10.30
2023-05-10T00:41:10.121Z,10.33
2023-05-10T00:43:37.734Z,10.32
2023-05-10T00:46:06.083Z,10.29
2023-05-10T00:48:34.004Z,10.34
2023-05-10T00:51:02.885Z,10.29
2023-05-10T00:53:33.966Z,10.29
2023-05-10T00:56:01.508Z,10.22
2023-05-10T00:58:30.011Z,10.27
2023-05-10T01:00:58.303Z,10.25
2023-05-10T01:03:26.921Z,10.26
2023-05-10T01:05:54.439Z,10.18
2023-05-10T01:08:22.677Z,10.25
2023-05-10T01:10:50.654Z,10.22
2023-05-10T01:13:40.577Z,10.22
2023-05-10T01:16:08.503Z,10.18
2023-05-10T01:18:46.433Z,10.20
2023-05-10T01:21:26.804Z,10.23
2023-05-10T01:24:57.377Z,10.20
2023-05-10T01:27:27.422Z,10.16
2023-05-10T01:30:22.223Z,10.10
2023-05-10T01:33:11.273Z,10.05
2023-05-10T01:36:00.747Z,10.02
2023-05-10T01:38:54.336Z,9.90
2023-05-10T01:41:48.999Z,9.83
2023-05-10T01:44:22.152Z,9.83
2023-05-10T01:47:06.661Z,9.77
2023-05-10T01:49:43.017Z,9.80
2023-05-10T01:52:15.426Z,9.73
2023-05-10T01:54:56.844Z,9.70
2023-05-10T01:57:32.463Z,9.69
2023-05-10T02:00:02.281Z,9.60
2023-05-10T02:02:37.876Z,9.62
2023-05-10T02:05:10.213Z,9.50
2023-05-10T02:07:39.337Z,9.53
2023-05-10T02:10:09.388Z,9.35
2023-05-10T02:12:42.076Z,9.39
2023-05-10T02:15:12.910Z,9.43
2023-05-10T02:17:43.417Z,9.37
2023-05-10T02:20:13.872Z,9.38
2023-05-10T02:22:43.216Z,9.28
2023-05-10T02:25:14.366Z,9.38
2023-05-10T02:27:45.579Z,9.41
2023-05-10T02:30:15.056Z,9.44
2023-05-10T02:32:44.230Z,9.37
2023-05-10T02:35:13.232Z,9.40
2023-05-10T02:37:42.600Z,9.35
2023-05-10T02:40:12.077Z,9.26
2023-05-10T02:42:43.508Z,9.30
2023-05-10T02:45:16.665Z,9.27
2023-05-10T02:47:44.959Z,9.24
2023-05-10T02:50:12.527Z,9.13
2023-05-10T02:52:55.567Z,9.12
2023-05-10T02:55:34.197Z,9.19
2023-05-10T02:58:04.080Z,9.28
2023-05-10T03:00:32.171Z,9.20
2023-05-10T03:03:00.430Z,9.21
2023-05-10T03:05:28.838Z,9.10
2023-05-10T03:07:57.002Z,9.13
2023-05-10T03:10:30.804Z,9.05
2023-05-10T03:13:27.577Z,9.07
2023-05-10T03:16:03.786Z,8.97
2023-05-10T03:18:45.286Z,9.15
2023-05-10T03:21:16.280Z,9.34
2023-05-10T03:24:09.326Z,9.35
2023-05-10T03:26:38.364Z,9.28
2023-05-10T03:29:07.738Z,9.22
2023-05-10T03:31:35.310Z,9.31
2023-05-10T03:34:03.014Z,9.26
2023-05-10T03:36:30.390Z,9.25
2023-05-10T03:38:57.924Z,9.26
2023-05-10T03:41:26.520Z,9.26
2023-05-10T03:43:54.093Z,9.27
2023-05-10T03:46:21.581Z,9.27
2023-05-10T03:48:49.154Z,9.34
2023-05-10T03:51:16.542Z,9.32
2023-05-10T03:53:44.102Z,9.34
2023-05-10T03:56:11.358Z,9.33
2023-05-10T03:58:38.920Z,9.30
2023-05-10T04:01:06.271Z,9.36
2023-05-10T04:03:34.160Z,9.35
2023-05-10T04:06:02.986Z,9.36
2023-05-10T04:08:31.132Z,9.48
2023-05-10T04:11:13.944Z,9.55
2023-05-10T04:13:41.493Z,9.57
2023-05-10T04:16:08.888Z,9.62
2023-05-10T04:18:36.751Z,9.62
2023-05-10T04:21:04.330Z,9.64
2023-05-10T04:23:32.940Z,9.66
2023-05-10T04:26:03.616Z,9.74
2023-05-10T04:28:31.144Z,9.73
2023-05-10T04:31:10.455Z,9.73
2023-05-10T04:33:38.921Z,9.84
2023-05-10T04:36:06.858Z,9.91
2023-05-10T04:38:34.429Z,9.95
2023-05-10T04:41:10.281Z,10.04
2023-05-10T04:43:39.513Z,10.13
2023-05-10T04:46:08.338Z,10.19
2023-05-10T04:48:36.362Z,10.30
2023-05-10T04:51:05.096Z,10.39
2023-05-10T04:53:33.074Z,10.41
2023-05-10T04:56:01.265Z,10.46
2023-05-10T04:58:28.886Z,10.46
2023-05-10T05:00:56.307Z,10.46
2023-05-10T05:03:24.010Z,10.47
2023-05-10T05:05:51.349Z,10.62
2023-05-10T05:08:18.926Z,10.72
2023-05-10T05:10:46.324Z,10.74
2023-05-10T05:13:16.092Z,10.73
2023-05-10T05:15:43.413Z,10.83
2023-05-10T05:18:11.207Z,10.89
2023-05-10T05:20:38.760Z,10.97
2023-05-10T05:23:06.396Z,10.96
2023-05-10T05:25:34.461Z,11.02
2023-05-10T05:28:02.702Z,11.03
2023-05-10T05:30:30.104Z,11.17
2023-05-10T05:32:57.862Z,11.23
2023-05-10T05:35:25.636Z,11.31
2023-05-10T05:37:53.220Z,11.34
2023-05-10T05:40:21.491Z,11.35
2023-05-10T05:42:49.063Z,11.43
2023-05-10T05:45:17.948Z,11.56
2023-05-10T05:47:45.641Z,11.65
2023-05-10T05:50:15.787Z,11.68
2023-05-10T05:52:43.389Z,11.76
2023-05-10T05:55:10.802Z,11.90
2023-05-10T05:57:38.728Z,11.92
2023-05-10T06:00:07.501Z,11.96
2023-05-10T06:02:35.205Z,12.15
2023-05-10T06:05:02.709Z,12.19
2023-05-10T06:07:30.459Z,12.21
2023-05-10T06:09:58.220Z,12.28
2023-05-10T06:12:25.904Z,12.43
2023-05-10T06:14:53.199Z,12.56
2023-05-10T06:17:20.760Z,12.62
2023-05-10T06:19:48.155Z,12.90
2023-05-10T06:22:15.715Z,12.93
2023-05-10T06:24:43.072Z,13.03
2023-05-10T06:27:10.712Z,13.22
2023-05-10T06:29:38.086Z,13.04
2023-05-10T06:32:05.860Z,13.44
2023-05-10T06:34:33.427Z,13.61
2023-05-10T06:37:01.130Z,13.74
2023-05-10T06:39:30.430Z,13.91
2023-05-10T06:41:58.045Z,13.98
2023-05-10T06:44:25.258Z,14.00
2023-05-10T06:46:54.565Z,14.09
2023-05-10T06:49:21.894Z,14.27
2023-05-10T06:51:49.508Z,14.33
2023-05-10T06:54:16.857Z,14.46
2023-05-10T06:56:44.508Z,14.47
2023-05-10T06:59:11.877Z,14.66
2023-05-10T07:01:39.636Z,14.75
2023-05-10T07:04:08.590Z,14.83
2023-05-10T07:06:37.098Z,15.00
2023-05-10T07:09:04.531Z,15.14
2023-05-10T07:11:32.240Z,15.29
2023-05-10T07:13:59.587Z,15.51
2023-05-10T07:16:27.272Z,15.64
2023-05-10T07:18:54.806Z,15.75
2023-05-10T07:21:25.088Z,15.91
2023-05-10T07:23:55.368Z,16.00
2023-05-10T07:26:23.071Z,16.07
2023-05-10T07:28:50.574Z,16.16
2023-05-10T07:31:18.237Z,16.30
2023-05-10T07:33:45.509Z,16.39
2023-05-10T07:36:22.195Z,16.45
2023-05-10T07:38:50.631Z,16.63
2023-05-10T07:41:18.270Z,16.65
2023-05-10T07:43:47.432Z,16.77
2023-05-10T07:46:15.056Z,16.94
2023-05-10T07:48:42.512Z,16.84
2023-05-10T07:51:10.578Z,16.97
2023-05-10T07:53:39.799Z,17.09
2023-05-10T07:56:26.196Z,17.19
2023-05-10T07:58:53.832Z,17.29
2023-05-10T08:01:21.614Z,17.20
2023-05-10T08:03:49.386Z,17.27
2023-05-10T08:06:19.101Z,17.36
2023-05-10T08:08:50.604Z,17.38
2023-05-10T08:11:19.345Z,17.51
2023-05-10T08:13:47.408Z,17.55
2023-05-10T08:16:15.242Z,17.70
2023-05-10T08:18:42.891Z,17.80
2023-05-10T08:21:12.467Z,17.85
2023-05-10T08:23:39.899Z,17.93
2023-05-10T08:26:07.864Z,18.21
2023-05-10T08:28:35.243Z,18.34
2023-05-10T08:31:03.071Z,18.44
2023-05-10T08:33:30.382Z,18.57
2023-05-10T08:35:58.558Z,18.64
2023-05-10T08:38:26.616Z,18.81
2023-05-10T08:41:00.115Z,18.89
2023-05-10T08:43:32.513Z,19.02
2023-05-10T08:46:06.392Z,19.19
2023-05-10T08:48:35.699Z,19.25
2023-05-10T08:51:05.426Z,19.47
2023-05-10T08:53:37.485Z,19.37
2023-05-10T08:56:06.258Z,19.36
2023-05-10T08:58:34.337Z,19.16
2023-05-10T09:01:02.600Z,19.38
2023-05-10T09:03:31.212Z,19.43
2023-05-10T09:05:59.409Z,19.34
2023-05-10T09:08:27.618Z,19.77
2023-05-10T09:10:56.591Z,19.84
2023-05-10T09:13:25.702Z,20.03
2023-05-10T09:15:54.235Z,20.14
2023-05-10T09:18:21.708Z,20.07
2023-05-10T09:20:50.533Z,20.55
2023-05-10T09:23:17.893Z,21.65
2023-05-10T09:25:46.177Z,27.70
2023-05-10T09:28:13.909Z,33.55
2023-05-10T09:30:41.638Z,38.32
2023-05-10T09:33:08.979Z,40.79
2023-05-10T09:35:37.242Z,44.35
2023-05-10T09:38:06.067Z,47.39
2023-05-10T09:40:34.248Z,46.75
2023-05-10T09:43:07.096Z,51.03
2023-05-10T09:45:38.598Z,53.75
2023-05-10T09:48:07.777Z,53.67
2023-05-10T09:50:35.639Z,54.26
2023-05-10T09:53:04.939Z,52.13
2023-05-10T09:55:45.967Z,54.78
2023-05-10T09:58:15.342Z,51.36
2023-05-10T10:00:46.100Z,55.30
2023-05-10T10:03:24.185Z,55.79
2023-05-10T10:05:52.408Z,56.73
2023-05-10T10:08:20.276Z,57.04
2023-05-10T10:10:48.548Z,54.31
2023-05-10T10:13:16.623Z,52.82
2023-05-10T10:15:52.106Z,53.66
2023-05-10T10:18:24.679Z,52.61
2023-05-10T10:20:52.974Z,51.96
2023-05-10T10:23:20.387Z,54.90
2023-05-10T10:25:50.022Z,53.67
2023-05-10T10:29:22.058Z,55.15
2023-05-10T10:32:22.281Z,49.22
2023-05-10T10:34:50.377Z,48.97
2023-05-10T10:37:18.563Z,52.47
2023-05-10T10:39:45.907Z,53.46
2023-05-10T10:42:13.551Z,54.36
2023-05-10T10:44:42.764Z,51.08
2023-05-10T10:47:14.185Z,45.82
2023-05-10T10:49:41.759Z,42.34
2023-05-10T10:52:32.104Z,38.80
2023-05-10T10:55:10.301Z,36.92
2023-05-10T10:58:05.528Z,34.35
2023-05-10T11:00:39.730Z,33.71
2023-05-10T11:03:14.602Z,33.46
2023-05-10T11:05:59.635Z,32.41
2023-05-10T11:08:45.827Z,31.94
2023-05-10T11:11:16.415Z,31.40
2023-05-10T11:13:51.463Z,31.14
2023-05-10T11:16:19.116Z,30.12
2023-05-10T11:19:08.053Z,28.79
2023-05-10T11:22:05.496Z,28.55
2023-05-10T11:24:34.894Z,27.81
2023-05-10T11:27:02.410Z,27.42
2023-05-10T11:29:30.111Z,27.78
2023-05-10T11:32:01.224Z,27.50
2023-05-10T11:34:36.557Z,27.00
2023-05-10T11:37:04.096Z,27.41
2023-05-10T11:39:34.569Z,26.31
2023-05-10T11:42:03.067Z,27.06
2023-05-10T11:44:32.769Z,27.30
2023-05-10T11:47:04.594Z,27.04
2023-05-10T11:49:32.397Z,26.68
2023-05-10T11:52:10.062Z,26.53
2023-05-10T11:54:38.055Z,26.59
2023-05-10T11:57:05.610Z,26.31
2023-05-10T11:59:33.429Z,25.84
2023-05-10T12:02:01.110Z,25.30
2023-05-10T12:04:30.631Z,25.32
2023-05-10T12:06:58.370Z,25.07
2023-05-10T12:09:39.602Z,25.26
2023-05-10T12:12:10.816Z,24.84
2023-05-10T12:14:38.553Z,24.57
2023-05-10T12:17:06.696Z,24.50
2023-05-10T12:19:41.050Z,24.55
2023-05-10T12:22:08.380Z,24.33
2023-05-10T12:24:39.880Z,24.74
2023-05-10T12:27:10.505Z,24.96
2023-05-10T12:29:44.874Z,24.84
2023-05-10T12:32:13.522Z,24.54
2023-05-10T12:34:41.235Z,24.80
2023-05-10T12:37:08.627Z,25.10
2023-05-10T12:39:47.247Z,25.11
2023-05-10T12:42:14.570Z,24.99
2023-05-10T12:44:44.117Z,25.50
2023-05-10T12:47:11.961Z,25.45
2023-05-10T12:49:39.666Z,25.37
2023-05-10T12:52:07.000Z,24.89
2023-05-10T12:54:34.986Z,25.13
2023-05-10T12:57:02.306Z,25.31
2023-05-10T12:59:30.174Z,24.86
2023-05-10T13:01:59.099Z,25.26
2023-05-10T13:04:27.020Z,25.27
2023-05-10T13:06:56.645Z,25.12
2023-05-10T13:09:29.657Z,24.45
2023-05-10T13:11:57.137Z,24.26
2023-05-10T13:14:25.882Z,24.90
2023-05-10T13:16:53.383Z,25.11
2023-05-10T13:19:21.684Z,25.12
2023-05-10T13:21:50.068Z,24.87
2023-05-10T13:24:18.907Z,24.72
2023-05-10T13:26:46.790Z,24.53
2023-05-10T13:29:18.618Z,24.54
2023-05-10T13:31:47.180Z,24.58
2023-05-10T13:34:15.650Z,24.41
2023-05-10T13:36:43.467Z,23.45
2023-05-10T13:39:11.558Z,23.86
2023-05-10T13:41:39.187Z,24.14
2023-05-10T13:44:06.968Z,24.42
2023-05-10T13:46:34.410Z,24.39
2023-05-10T13:49:02.329Z,23.72
2023-05-10T13:51:29.785Z,24.32
2023-05-10T13:53:57.445Z,24.37
2023-05-10T13:56:25.115Z,24.45
2023-05-10T13:58:53.396Z,24.25
2023-05-10T14:01:20.950Z,24.26
2023-05-10T14:04:03.550Z,24.37
2023-05-10T14:06:31.776Z,24.33
2023-05-10T14:08:59.338Z,24.50
2023-05-10T14:11:27.173Z,24.65
2023-05-10T14:13:55.046Z,24.74
2023-05-10T14:16:23.050Z,24.48
2023-05-10T14:18:50.565Z,24.22
2023-05-10T14:21:18.594Z,24.04
2023-05-10T14:23:46.121Z,23.75
2023-05-10T14:26:14.073Z,23.64
2023-05-10T14:28:41.726Z,23.16
2023-05-10T14:31:09.378Z,23.77
2023-05-10T14:33:37.026Z,23.93
2023-05-10T14:36:05.126Z,23.99
2023-05-10T14:38:32.433Z,24.10
2023-05-10T14:41:00.230Z,23.15
2023-05-10T14:43:28.625Z,23.72
2023-05-10T14:45:56.347Z,23.71
2023-05-10T14:48:23.708Z,23.24
2023-05-10T14:50:53.617Z,23.75
2023-05-10T14:53:21.715Z,23.90
2023-05-10T14:55:49.293Z,23.73
2023-05-10T14:58:16.682Z,23.59
2023-05-10T15:00:44.670Z,23.50
2023-05-10T15:03:12.645Z,23.74
2023-05-10T15:05:40.556Z,23.65
2023-05-10T15:08:12.692Z,23.68
2023-05-10T15:10:41.237Z,23.74
2023-05-10T15:13:08.926Z,23.74
2023-05-10T15:15:37.169Z,23.56
2023-05-10T15:18:05.662Z,23.16
2023-05-10T15:20:34.221Z,23.32
2023-05-10T15:23:04.083Z,22.79
2023-05-10T15:25:39.675Z,22.86
2023-05-10T15:28:07.411Z,22.98
2023-05-10T15:30:35.190Z,22.37
2023-05-10T15:33:02.737Z,22.72
2023-05-10T15:35:30.581Z,23.05
2023-05-10T15:37:57.993Z,22.63
2023-05-10T15:40:25.932Z,22.63
2023-05-10T15:42:53.308Z,22.80
2023-05-10T15:45:21.801Z,22.59
2023-05-10T15:47:50.315Z,22.60
2023-05-10T15:50:18.140Z,22.55
2023-05-10T15:52:45.891Z,22.60
2023-05-10T15:55:13.990Z,22.58
2023-05-10T15:57:44.133Z,22.62
2023-05-10T16:00:13.548Z,22.70
2023-05-10T16:02:42.056Z,22.37
2023-05-10T16:05:11.096Z,21.88
2023-05-10T16:07:39.803Z,22.09
2023-05-10T16:10:10.814Z,22.32
2023-05-10T16:12:39.915Z,22.29
2023-05-10T16:15:09.420Z,22.30
2023-05-10T16:17:37.752Z,22.36
2023-05-10T16:20:12.848Z,21.86
2023-05-10T16:22:40.335Z,21.95
2023-05-10T16:25:10.191Z,21.60
2023-05-10T16:27:39.434Z,21.46
2023-05-10T16:30:08.767Z,21.24
2023-05-10T16:32:36.395Z,21.19
2023-05-10T16:35:05.920Z,21.23
2023-05-10T16:37:33.302Z,21.22
2023-05-10T16:40:02.629Z,21.49
2023-05-10T16:42:31.409Z,21.67
2023-05-10T16:45:09.263Z,21.79
2023-05-10T16:47:41.005Z,21.77
2023-05-10T16:50:09.250Z,21.78
2023-05-10T16:52:37.421Z,21.89
2023-05-10T16:55:05.867Z,21.93
2023-05-10T16:57:33.336Z,21.90
2023-05-10T17:00:01.087Z,21.96
2023-05-10T17:02:28.646Z,21.76
2023-05-10T17:04:56.989Z,21.76
2023-05-10T17:07:26.195Z,21.74
2023-05-10T17:09:54.395Z,21.55
2023-05-10T17:12:22.352Z,21.38
2023-05-10T17:14:50.296Z,21.33
2023-05-10T17:17:18.208Z,21.19
2023-05-10T17:19:47.905Z,20.94
2023-05-10T17:22:15.820Z,20.93
2023-05-10T17:24:45.382Z,20.85
2023-05-10T17:27:14.257Z,20.78
2023-05-10T17:29:42.414Z,20.71
2023-05-10T17:32:10.647Z,20.62
2023-05-10T17:34:40.426Z,20.55
2023-05-10T17:37:10.184Z,20.49
2023-05-10T17:39:39.931Z,20.40
2023-05-10T17:42:08.396Z,20.36
2023-05-10T17:44:36.165Z,20.36
2023-05-10T17:47:04.127Z,20.45
2023-05-10T17:49:31.888Z,20.35
2023-05-10T17:51:59.668Z,20.11
2023-05-10T17:54:27.897Z,20.02
2023-05-10T17:56:58.348Z,19.83
2023-05-10T17:59:26.522Z,19.68
2023-05-10T18:01:54.023Z,19.41
2023-05-10T18:04:22.183Z,19.32
2023-05-10T18:06:50.001Z,19.20
2023-05-10T18:09:21.432Z,19.02
2023-05-10T18:11:48.962Z,18.85
2023-05-10T18:14:28.223Z,18.74
2023-05-10T18:17:06.477Z,18.61
2023-05-10T18:19:34.981Z,18.49
2023-05-10T18:22:02.902Z,18.42
2023-05-10T18:24:39.277Z,18.38
2023-05-10T18:27:09.641Z,18.26
2023-05-10T18:29:37.687Z,18.19
2023-05-10T18:32:07.238Z,18.12
2023-05-10T18:34:36.758Z,18.07
2023-05-10T18:37:07.613Z,18.00
2023-05-10T18:39:38.144Z,17.90
2023-05-10T18:42:06.473Z,17.79
2023-05-10T18:44:36.423Z,17.58
2023-05-10T18:47:03.916Z,17.57
2023-05-10T18:49:32.375Z,17.50
2023-05-10T18:51:59.909Z,17.43
2023-05-10T18:54:27.794Z,17.38
2023-05-10T18:56:57.464Z,17.26
2023-05-10T18:59:26.490Z,17.22
2023-05-10T19:01:55.023Z,17.15
2023-05-10T19:04:25.705Z,17.01
2023-05-10T19:06:54.053Z,16.98
2023-05-10T19:09:25.157Z,16.96
2023-05-10T19:11:53.474Z,16.85
2023-05-10T19:14:21.909Z,16.80
2023-05-10T19:16:51.884Z,16.74
2023-05-10T19:19:20.872Z,16.64
2023-05-10T19:21:48.632Z,16.59
2023-05-10T19:24:16.929Z,16.54
2023-05-10T19:26:48.611Z,16.43
2023-05-10T19:29:17.418Z,16.37
2023-05-10T19:31:49.889Z,16.23
2023-05-10T19:34:17.763Z,16.23
2023-05-10T19:36:45.556Z,16.13
2023-05-10T19:39:13.348Z,16.03
2023-05-10T19:41:40.607Z,16.00
2023-05-10T19:44:08.434Z,15.95
2023-05-10T19:46:35.765Z,15.91
2023-05-10T19:49:03.447Z,15.76
2023-05-10T19:51:30.889Z,15.79
2023-05-10T19:53:58.600Z,15.90
2023-05-10T19:56:27.094Z,15.87
2023-05-10T19:58:54.979Z,15.91
2023-05-10T20:01:22.458Z,15.88
2023-05-10T20:03:57.094Z,15.76
2023-05-10T20:06:24.646Z,15.79
2023-05-10T20:08:52.262Z,15.76
2023-05-10T20:11:19.620Z,15.53
2023-05-10T20:13:47.313Z,15.66
2023-05-10T20:16:14.720Z,15.67
2023-05-10T20:18:42.512Z,15.59
2023-05-10T20:22:02.093Z,15.49
2023-05-10T20:24:29.773Z,15.47
2023-05-10T20:26:57.066Z,15.43
2023-05-10T20:29:24.800Z,15.40
2023-05-10T20:31:52.233Z,15.39
2023-05-10T20:34:19.980Z,15.38
2023-05-10T20:36:47.418Z,15.34
2023-05-10T20:39:15.457Z,15.24
2023-05-10T20:41:42.834Z,15.26
2023-05-10T20:44:10.410Z,15.26
2023-05-10T20:46:37.930Z,15.26
2023-05-10T20:49:05.739Z,15.19
2023-05-10T20:51:33.372Z,15.18
2023-05-10T20:54:04.504Z,15.16
2023-05-10T20:56:31.892Z,15.14
2023-05-10T20:58:59.461Z,15.00
2023-05-10T21:01:26.802Z,14.98
2023-05-10T21:03:54.468Z,14.86
2023-05-10T21:06:21.803Z,14.79
2023-05-10T21:08:51.657Z,14.77
2023-05-10T21:11:19.001Z,14.79
2023-05-10T21:13:46.607Z,14.75
2023-05-10T21:16:14.078Z,14.67
2023-05-10T21:18:41.717Z,14.69
2023-05-10T21:21:09.085Z,14.67
2023-05-10T21:23:38.176Z,14.58
2023-05-10T21:26:05.790Z,14.58
2023-05-10T21:28:33.513Z,14.57
2023-05-10T21:31:00.963Z,14.59
2023-05-10T21:33:28.554Z,14.53
2023-05-10T21:35:56.629Z,14.46
2023-05-10T21:38:24.237Z,14.44
2023-05-10T21:40:51.760Z,14.37
2023-05-10T21:43:19.478Z,14.34
2023-05-10T21:45:46.964Z,14.27
2023-05-10T21:48:22.272Z,14.20
2023-05-10T21:50:49.529Z,14.19
2023-05-10T21:53:17.224Z,14.14
2023-05-10T21:55:44.541Z,14.12
2023-05-10T21:58:12.112Z,14.05
2023-05-10T22:00:39.448Z,14.02
2023-05-10T22:03:07.213Z,14.02
2023-05-10T22:05:34.626Z,14.01
2023-05-10T22:08:02.288Z,13.95
2023-05-10T22:10:29.649Z,13.96
2023-05-10T22:12:59.746Z,13.93
2023-05-10T22:15:28.131Z,13.94
2023-05-10T22:17:55.759Z,13.87
2023-05-10T22:20:23.210Z,13.95
2023-05-10T22:22:50.836Z,13.92
2023-05-10T22:25:18.459Z,13.94
2023-05-10T22:27:46.240Z,13.95
2023-05-10T22:30:13.775Z,13.99
2023-05-10T22:32:41.655Z,14.03
2023-05-10T22:35:09.435Z,14.02
2023-05-10T22:37:37.019Z,14.00
2023-05-10T22:40:04.901Z,14.04
2023-05-10T22:42:34.023Z,13.97
2023-05-10T22:45:01.417Z,14.02
2023-05-10T22:47:29.088Z,13.98
2023-05-10T22:49:58.363Z,13.97
2023-05-10T22:52:27.488Z,13.94
2023-05-10T22:54:54.781Z,13.97
2023-05-10T22:57:26.092Z,13.93
2023-05-10T22:59:53.660Z,13.91
2023-05-10T23:02:23.355Z,13.93
2023-05-10T23:04:50.685Z,13.97
2023-05-10T23:07:18.227Z,13.98
2023-05-10T23:09:46.171Z,13.96
2023-05-10T23:12:13.697Z,13.91
2023-05-10T23:14:41.853Z,13.82
2023-05-10T23:17:09.469Z,13.82
2023-05-10T23:19:36.845Z,13.84
2023-05-10T23:22:04.374Z,13.81
2023-05-10T23:24:31.730Z,13.79
2023-05-10T23:26:59.349Z,13.81
2023-05-10T23:29:26.828Z,13.82
2023-05-10T23:31:54.406Z,13.90
2023-05-10T23:34:21.721Z,13.82
2023-05-10T23:36:49.278Z,13.76
2023-05-10T23:39:16.721Z,13.76
2023-05-10T23:41:44.756Z,13.72
2023-05-10T23:44:12.068Z,13.72
2023-05-10T23:46:39.825Z,13.68
2023-05-10T23:49:07.190Z,13.67
2023-05-10T23:51:34.753Z,13.61
2023-05-10T23:54:02.198Z,13.65
2023-05-10T23:56:30.191Z,13.58
2023-05-10T23:58:57.628Z,13.57
